sensor_id;sensor_type;location;lat;lon;timestamp;pressure;altitude;pressure_sealevel;temperature;humidity
51083;BME280;37131;42.694;23.350;2023-07-29T00:00:37;95313.34;;;18.82;60.84
51083;BME280;37131;42.694;23.350;2023-07-29T00:03:03;95309.63;;;18.88;60.79
51083;BME280;37131;42.694;23.350;2023-07-29T00:05:28;95315.53;;;18.69;61.59
51083;BME280;37131;42.694;23.350;2023-07-29T00:07:54;95311.41;;;18.98;60.79
51083;BME280;37131;42.694;23.350;2023-07-29T00:10:19;95317.66;;;18.67;62.09
51083;BME280;37131;42.694;23.350;2023-07-29T00:12:45;95314.50;;;18.65;62.00
51083;BME280;37131;42.694;23.350;2023-07-29T00:15:11;95310.19;;;18.80;61.81
51083;BME280;37131;42.694;23.350;2023-07-29T00:17:36;95319.03;;;18.59;62.39
51083;BME280;37131;42.694;23.350;2023-07-29T00:20:02;95320.41;;;18.47;63.14
51083;BME280;37131;42.694;23.350;2023-07-29T00:22:27;95291.00;;;18.14;62.77
51083;BME280;37131;42.694;23.350;2023-07-29T00:24:53;95308.59;;;18.34;63.24
51083;BME280;37131;42.694;23.350;2023-07-29T00:27:25;95309.66;;;18.33;63.44
51083;BME280;37131;42.694;23.350;2023-07-29T00:29:51;95283.16;;;17.98;63.80
51083;BME280;37131;42.694;23.350;2023-07-29T00:32:17;95311.34;;;18.08;64.12
51083;BME280;37131;42.694;23.350;2023-07-29T00:34:42;95310.19;;;18.30;63.27
51083;BME280;37131;42.694;23.350;2023-07-29T00:37:08;95301.06;;;18.06;64.06
51083;BME280;37131;42.694;23.350;2023-07-29T00:39:33;95304.19;;;18.14;63.63
51083;BME280;37131;42.694;23.350;2023-07-29T00:41:59;95307.09;;;18.17;64.22
51083;BME280;37131;42.694;23.350;2023-07-29T00:44:24;95299.28;;;17.76;65.42
51083;BME280;37131;42.694;23.350;2023-07-29T00:46:52;95299.56;;;17.75;66.20
51083;BME280;37131;42.694;23.350;2023-07-29T00:49:18;95294.50;;;17.94;65.57
51083;BME280;37131;42.694;23.350;2023-07-29T00:51:44;95285.03;;;17.93;65.70
51083;BME280;37131;42.694;23.350;2023-07-29T00:54:10;95297.91;;;17.89;66.08
51083;BME280;37131;42.694;23.350;2023-07-29T00:56:35;95296.13;;;17.90;66.21
51083;BME280;37131;42.694;23.350;2023-07-29T00:59:01;95303.34;;;18.29;64.92
51083;BME280;37131;42.694;23.350;2023-07-29T01:01:30;95294.59;;;18.33;64.42
51083;BME280;37131;42.694;23.350;2023-07-29T01:03:56;95271.53;;;17.89;65.90
51083;BME280;37131;42.694;23.350;2023-07-29T01:09:08;95294.00;;;18.47;64.33
51083;BME280;37131;42.694;23.350;2023-07-29T01:16:55;95292.13;;;17.97;65.82
51083;BME280;37131;42.694;23.350;2023-07-29T01:20:14;95296.28;;;18.14;65.20
51083;BME280;37131;42.694;23.350;2023-07-29T01:22:36;95285.25;;;18.01;65.09
51083;BME280;37131;42.694;23.350;2023-07-29T01:25:05;95297.41;;;17.82;66.90
51083;BME280;37131;42.694;23.350;2023-07-29T01:27:30;95298.72;;;17.95;66.39
51083;BME280;37131;42.694;23.350;2023-07-29T01:29:57;95297.94;;;17.94;66.24
51083;BME280;37131;42.694;23.350;2023-07-29T01:37:53;95289.00;;;17.75;66.81
51083;BME280;37131;42.694;23.350;2023-07-29T01:40:22;95293.25;;;17.60;67.84
51083;BME280;37131;42.694;23.350;2023-07-29T01:42:48;95295.38;;;17.48;68.06
51083;BME280;37131;42.694;23.350;2023-07-29T01:45:14;95282.72;;;17.55;67.76
51083;BME280;37131;42.694;23.350;2023-07-29T01:47:39;95291.97;;;17.42;68.25
51083;BME280;37131;42.694;23.350;2023-07-29T01:50:07;95304.59;;;17.50;68.26
51083;BME280;37131;42.694;23.350;2023-07-29T01:52:33;95298.84;;;17.38;69.00
51083;BME280;37131;42.694;23.350;2023-07-29T01:54:58;95295.88;;;17.55;68.16
51083;BME280;37131;42.694;23.350;2023-07-29T01:57:23;95302.25;;;17.33;69.66
51083;BME280;37131;42.694;23.350;2023-07-29T01:59:49;95297.53;;;17.30;69.24
51083;BME280;37131;42.694;23.350;2023-07-29T02:02:14;95306.47;;;17.14;70.55
51083;BME280;37131;42.694;23.350;2023-07-29T02:04:39;95279.09;;;17.05;70.72
51083;BME280;37131;42.694;23.350;2023-07-29T02:07:05;95299.09;;;17.36;70.07
51083;BME280;37131;42.694;23.350;2023-07-29T02:09:30;95300.94;;;17.41;69.88
51083;BME280;37131;42.694;23.350;2023-07-29T02:11:57;95299.09;;;17.26;70.62
51083;BME280;37131;42.694;23.350;2023-07-29T02:14:22;95303.34;;;17.17;71.11
51083;BME280;37131;42.694;23.350;2023-07-29T02:16:48;95303.31;;;17.12;71.31
51083;BME280;37131;42.694;23.350;2023-07-29T02:19:14;95309.66;;;17.26;70.76
51083;BME280;37131;42.694;23.350;2023-07-29T02:21:40;95309.88;;;17.50;69.68
51083;BME280;37131;42.694;23.350;2023-07-29T02:24:05;95309.09;;;17.40;69.95
51083;BME280;37131;42.694;23.350;2023-07-29T02:26:31;95302.53;;;17.22;70.67
51083;BME280;37131;42.694;23.350;2023-07-29T02:28:56;95317.03;;;17.29;71.03
51083;BME280;37131;42.694;23.350;2023-07-29T02:31:23;95310.97;;;17.39;70.31
51083;BME280;37131;42.694;23.350;2023-07-29T02:33:49;95307.50;;;17.49;69.77
51083;BME280;37131;42.694;23.350;2023-07-29T02:36:16;95299.63;;;17.13;71.46
51083;BME280;37131;42.694;23.350;2023-07-29T02:38:42;95301.47;;;17.02;72.13
51083;BME280;37131;42.694;23.350;2023-07-29T02:41:08;95312.53;;;16.94;72.67
51083;BME280;37131;42.694;23.350;2023-07-29T02:43:35;95302.75;;;16.84;73.36
51083;BME280;37131;42.694;23.350;2023-07-29T02:46:00;95309.31;;;16.81;74.65
51083;BME280;37131;42.694;23.350;2023-07-29T02:48:27;95314.81;;;16.70;74.62
51083;BME280;37131;42.694;23.350;2023-07-29T02:50:53;95309.84;;;16.63;75.20
51083;BME280;37131;42.694;23.350;2023-07-29T02:53:18;95319.66;;;16.93;74.33
51083;BME280;37131;42.694;23.350;2023-07-29T02:55:44;95325.13;;;16.81;74.96
51083;BME280;37131;42.694;23.350;2023-07-29T02:58:09;95320.34;;;16.68;76.32
51083;BME280;37131;42.694;23.350;2023-07-29T03:00:35;95317.22;;;16.76;75.76
51083;BME280;37131;42.694;23.350;2023-07-29T03:03:00;95317.50;;;16.85;75.16
51083;BME280;37131;42.694;23.350;2023-07-29T03:05:29;95315.84;;;16.48;76.79
51083;BME280;37131;42.694;23.350;2023-07-29T03:07:54;95331.91;;;16.52;76.94
51083;BME280;37131;42.694;23.350;2023-07-29T03:10:19;95330.59;;;16.54;76.81
51083;BME280;37131;42.694;23.350;2023-07-29T03:12:46;95332.19;;;16.55;77.10
51083;BME280;37131;42.694;23.350;2023-07-29T03:15:11;95331.91;;;16.46;77.49
51083;BME280;37131;42.694;23.350;2023-07-29T03:17:37;95338.72;;;16.37;76.95
51083;BME280;37131;42.694;23.350;2023-07-29T03:20:02;95320.00;;;16.34;76.25
51083;BME280;37131;42.694;23.350;2023-07-29T03:22:28;95339.28;;;16.49;76.14
51083;BME280;37131;42.694;23.350;2023-07-29T03:24:53;95331.66;;;16.53;75.19
51083;BME280;37131;42.694;23.350;2023-07-29T03:27:19;95335.78;;;16.28;75.88
51083;BME280;37131;42.694;23.350;2023-07-29T03:29:44;95342.06;;;16.17;76.64
51083;BME280;37131;42.694;23.350;2023-07-29T03:32:10;95332.56;;;16.11;76.30
51083;BME280;37131;42.694;23.350;2023-07-29T03:34:36;95332.31;;;16.12;75.35
51083;BME280;37131;42.694;23.350;2023-07-29T03:37:01;95326.31;;;16.27;74.66
51083;BME280;37131;42.694;23.350;2023-07-29T03:39:27;95341.28;;;16.22;75.65
51083;BME280;37131;42.694;23.350;2023-07-29T03:41:52;95342.03;;;16.12;76.24
51083;BME280;37131;42.694;23.350;2023-07-29T03:44:17;95337.81;;;16.11;75.91
51083;BME280;37131;42.694;23.350;2023-07-29T03:46:46;95338.03;;;16.04;76.50
51083;BME280;37131;42.694;23.350;2023-07-29T03:49:12;95335.63;;;15.92;77.19
51083;BME280;37131;42.694;23.350;2023-07-29T03:51:37;95343.91;;;16.17;76.36
51083;BME280;37131;42.694;23.350;2023-07-29T03:54:02;95336.13;;;16.53;74.05
51083;BME280;37131;42.694;23.350;2023-07-29T03:56:28;95318.03;;;15.98;76.11
51083;BME280;37131;42.694;23.350;2023-07-29T03:58:53;95339.44;;;16.22;75.60
51083;BME280;37131;42.694;23.350;2023-07-29T04:01:26;95330.50;;;16.18;76.16
51083;BME280;37131;42.694;23.350;2023-07-29T04:03:52;95338.44;;;16.28;76.36
51083;BME280;37131;42.694;23.350;2023-07-29T04:06:17;95338.34;;;16.08;76.50
51083;BME280;37131;42.694;23.350;2023-07-29T04:08:43;95342.53;;;16.04;76.75
51083;BME280;37131;42.694;23.350;2023-07-29T04:11:08;95346.94;;;15.93;77.42
51083;BME280;37131;42.694;23.350;2023-07-29T04:13:34;95341.69;;;15.93;77.93
51083;BME280;37131;42.694;23.350;2023-07-29T04:15:59;95342.16;;;16.48;75.43
51083;BME280;37131;42.694;23.350;2023-07-29T04:18:25;95350.41;;;16.77;74.40
51083;BME280;37131;42.694;23.350;2023-07-29T04:20:50;95352.06;;;16.25;77.22
51083;BME280;37131;42.694;23.350;2023-07-29T04:23:15;95350.47;;;16.19;78.21
51083;BME280;37131;42.694;23.350;2023-07-29T04:25:41;95344.78;;;16.38;77.06
51083;BME280;37131;42.694;23.350;2023-07-29T04:28:06;95347.63;;;16.31;77.80
51083;BME280;37131;42.694;23.350;2023-07-29T04:30:32;95341.63;;;16.41;77.64
51083;BME280;37131;42.694;23.350;2023-07-29T04:32:57;95342.66;;;16.40;77.75
51083;BME280;37131;42.694;23.350;2023-07-29T04:35:22;95343.47;;;16.45;75.41
51083;BME280;37131;42.694;23.350;2023-07-29T04:37:48;95343.75;;;16.54;75.86
51083;BME280;37131;42.694;23.350;2023-07-29T04:40:14;95349.56;;;16.66;76.12
51083;BME280;37131;42.694;23.350;2023-07-29T04:42:39;95344.06;;;16.73;76.15
51083;BME280;37131;42.694;23.350;2023-07-29T04:45:05;95352.50;;;16.75;76.30
51083;BME280;37131;42.694;23.350;2023-07-29T04:47:30;95352.56;;;16.91;76.06
51083;BME280;37131;42.694;23.350;2023-07-29T04:49:56;95348.63;;;16.93;75.55
51083;BME280;37131;42.694;23.350;2023-07-29T04:52:21;95346.28;;;17.28;73.27
51083;BME280;37131;42.694;23.350;2023-07-29T04:54:47;95354.69;;;17.30;73.63
51083;BME280;37131;42.694;23.350;2023-07-29T04:57:12;95355.47;;;17.35;73.38
51083;BME280;37131;42.694;23.350;2023-07-29T04:59:37;95359.72;;;17.26;73.88
51083;BME280;37131;42.694;23.350;2023-07-29T05:02:03;95363.34;;;17.82;69.88
51083;BME280;37131;42.694;23.350;2023-07-29T05:04:28;95358.88;;;17.93;70.54
51083;BME280;37131;42.694;23.350;2023-07-29T05:06:54;95357.50;;;18.11;68.67
51083;BME280;37131;42.694;23.350;2023-07-29T05:09:19;95364.31;;;18.27;67.24
51083;BME280;37131;42.694;23.350;2023-07-29T05:11:47;95356.97;;;18.19;67.01
51083;BME280;37131;42.694;23.350;2023-07-29T05:14:15;95351.19;;;18.12;68.22
51083;BME280;37131;42.694;23.350;2023-07-29T05:16:40;95365.28;;;18.47;66.72
51083;BME280;37131;42.694;23.350;2023-07-29T05:19:06;95352.16;;;18.26;69.19
51083;BME280;37131;42.694;23.350;2023-07-29T05:21:31;95352.69;;;18.28;68.99
51083;BME280;37131;42.694;23.350;2023-07-29T05:23:57;95351.84;;;18.38;68.32
51083;BME280;37131;42.694;23.350;2023-07-29T05:26:23;95365.31;;;18.41;67.51
51083;BME280;37131;42.694;23.350;2023-07-29T05:28:48;95371.50;;;18.76;65.31
51083;BME280;37131;42.694;23.350;2023-07-29T05:31:14;95366.69;;;18.89;64.35
51083;BME280;37131;42.694;23.350;2023-07-29T05:33:39;95364.75;;;19.00;65.33
51083;BME280;37131;42.694;23.350;2023-07-29T05:36:05;95361.22;;;19.15;62.88
51083;BME280;37131;42.694;23.350;2023-07-29T05:38:31;95375.16;;;18.81;64.33
51083;BME280;37131;42.694;23.350;2023-07-29T05:40:56;95376.84;;;18.66;65.71
51083;BME280;37131;42.694;23.350;2023-07-29T05:43:24;95372.53;;;18.86;65.70
51083;BME280;37131;42.694;23.350;2023-07-29T05:45:49;95374.06;;;18.92;64.60
51083;BME280;37131;42.694;23.350;2023-07-29T05:48:16;95364.69;;;19.10;62.36
51083;BME280;37131;42.694;23.350;2023-07-29T05:50:41;95371.88;;;19.04;63.57
51083;BME280;37131;42.694;23.350;2023-07-29T05:53:07;95352.59;;;19.38;62.17
51083;BME280;37131;42.694;23.350;2023-07-29T05:55:32;95373.84;;;19.92;59.30
51083;BME280;37131;42.694;23.350;2023-07-29T05:57:57;95378.19;;;19.77;60.05
51083;BME280;37131;42.694;23.350;2023-07-29T06:00:23;95373.47;;;19.69;61.19
51083;BME280;37131;42.694;23.350;2023-07-29T06:02:48;95368.03;;;19.90;60.55
51083;BME280;37131;42.694;23.350;2023-07-29T06:05:14;95352.03;;;20.00;59.36
51083;BME280;37131;42.694;23.350;2023-07-29T06:07:39;95366.75;;;20.36;58.72
51083;BME280;37131;42.694;23.350;2023-07-29T06:10:09;95363.22;;;20.64;56.88
51083;BME280;37131;42.694;23.350;2023-07-29T06:12:37;95360.31;;;20.66;57.77
51083;BME280;37131;42.694;23.350;2023-07-29T06:15:03;95365.47;;;20.76;56.32
51083;BME280;37131;42.694;23.350;2023-07-29T06:17:28;95363.91;;;20.94;55.98
51083;BME280;37131;42.694;23.350;2023-07-29T06:19:53;95367.13;;;20.72;57.43
51083;BME280;37131;42.694;23.350;2023-07-29T06:22:19;95362.28;;;20.55;57.88
51083;BME280;37131;42.694;23.350;2023-07-29T06:24:44;95359.94;;;20.73;56.83
51083;BME280;37131;42.694;23.350;2023-07-29T06:27:10;95358.09;;;21.11;55.52
51083;BME280;37131;42.694;23.350;2023-07-29T06:29:35;95360.88;;;21.20;55.82
51083;BME280;37131;42.694;23.350;2023-07-29T06:32:01;95349.06;;;21.12;56.49
51083;BME280;37131;42.694;23.350;2023-07-29T06:34:26;95348.84;;;21.09;56.31
51083;BME280;37131;42.694;23.350;2023-07-29T06:36:52;95344.84;;;21.11;56.28
51083;BME280;37131;42.694;23.350;2023-07-29T06:39:17;95345.44;;;20.89;56.78
51083;BME280;37131;42.694;23.350;2023-07-29T06:41:42;95344.06;;;20.92;57.07
51083;BME280;37131;42.694;23.350;2023-07-29T06:44:08;95341.84;;;20.99;57.36
51083;BME280;37131;42.694;23.350;2023-07-29T06:46:33;95342.50;;;20.91;57.73
51083;BME280;37131;42.694;23.350;2023-07-29T06:48:59;95334.38;;;20.63;57.72
51083;BME280;37131;42.694;23.350;2023-07-29T06:51:24;95334.31;;;21.06;57.62
51083;BME280;37131;42.694;23.350;2023-07-29T06:53:49;95322.25;;;21.66;54.95
51083;BME280;37131;42.694;23.350;2023-07-29T06:56:15;95304.97;;;21.49;54.65
51083;BME280;37131;42.694;23.350;2023-07-29T06:58:40;95335.53;;;21.80;54.76
51083;BME280;37131;42.694;23.350;2023-07-29T07:01:06;95337.00;;;21.86;54.16
51083;BME280;37131;42.694;23.350;2023-07-29T07:03:31;95335.03;;;21.78;54.20
51083;BME280;37131;42.694;23.350;2023-07-29T07:05:56;95335.53;;;21.94;53.54
51083;BME280;37131;42.694;23.350;2023-07-29T07:08:22;95338.00;;;22.18;53.16
51083;BME280;37131;42.694;23.350;2023-07-29T07:10:48;95338.38;;;22.11;53.69
51083;BME280;37131;42.694;23.350;2023-07-29T07:13:13;95338.97;;;21.94;54.38
51083;BME280;37131;42.694;23.350;2023-07-29T07:15:38;95331.88;;;22.17;52.85
51083;BME280;37131;42.694;23.350;2023-07-29T07:18:04;95332.78;;;22.40;52.92
51083;BME280;37131;42.694;23.350;2023-07-29T07:20:29;95335.03;;;22.61;51.58
51083;BME280;37131;42.694;23.350;2023-07-29T07:22:55;95334.13;;;22.80;51.24
51083;BME280;37131;42.694;23.350;2023-07-29T07:25:21;95330.41;;;22.89;51.18
51083;BME280;37131;42.694;23.350;2023-07-29T07:27:47;95324.31;;;22.52;51.26
51083;BME280;37131;42.694;23.350;2023-07-29T07:30:13;95331.06;;;22.72;51.17
51083;BME280;37131;42.694;23.350;2023-07-29T07:32:39;95332.47;;;22.92;51.16
51083;BME280;37131;42.694;23.350;2023-07-29T07:35:05;95325.16;;;23.12;49.28
51083;BME280;37131;42.694;23.350;2023-07-29T07:37:30;95314.59;;;23.07;49.58
51083;BME280;37131;42.694;23.350;2023-07-29T07:39:56;95314.97;;;23.37;48.83
51083;BME280;37131;42.694;23.350;2023-07-29T07:42:21;95317.47;;;23.33;48.87
51083;BME280;37131;42.694;23.350;2023-07-29T07:44:46;95313.53;;;23.30;49.01
51083;BME280;37131;42.694;23.350;2023-07-29T07:47:12;95313.44;;;23.67;48.58
51083;BME280;37131;42.694;23.350;2023-07-29T07:49:37;95315.09;;;23.54;48.05
51083;BME280;37131;42.694;23.350;2023-07-29T07:52:03;95321.59;;;23.71;47.82
51083;BME280;37131;42.694;23.350;2023-07-29T07:54:28;95315.53;;;23.25;48.42
51083;BME280;37131;42.694;23.350;2023-07-29T07:56:54;95290.50;;;23.26;47.41
51083;BME280;37131;42.694;23.350;2023-07-29T07:59:19;95324.16;;;23.85;45.61
51083;BME280;37131;42.694;23.350;2023-07-29T08:01:45;95320.06;;;24.10;45.79
51083;BME280;37131;42.694;23.350;2023-07-29T08:04:10;95311.16;;;24.14;46.13
51083;BME280;37131;42.694;23.350;2023-07-29T08:06:35;95318.06;;;24.33;46.06
51083;BME280;37131;42.694;23.350;2023-07-29T08:09:01;95312.31;;;24.48;46.06
51083;BME280;37131;42.694;23.350;2023-07-29T08:11:26;95287.69;;;24.51;45.63
51083;BME280;37131;42.694;23.350;2023-07-29T08:13:52;95318.59;;;24.52;45.68
51083;BME280;37131;42.694;23.350;2023-07-29T08:16:17;95320.38;;;24.66;44.26
51083;BME280;37131;42.694;23.350;2023-07-29T08:18:43;95315.06;;;24.83;44.13
51083;BME280;37131;42.694;23.350;2023-07-29T08:21:09;95317.88;;;24.96;44.27
51083;BME280;37131;42.694;23.350;2023-07-29T08:23:35;95324.78;;;25.06;44.00
51083;BME280;37131;42.694;23.350;2023-07-29T08:26:03;95298.09;;;24.88;43.99
51083;BME280;37131;42.694;23.350;2023-07-29T08:28:31;95307.66;;;24.98;44.43
51083;BME280;37131;42.694;23.350;2023-07-29T08:30:57;95315.97;;;24.61;44.48
51083;BME280;37131;42.694;23.350;2023-07-29T08:33:23;95299.50;;;24.85;43.93
51083;BME280;37131;42.694;23.350;2023-07-29T08:35:49;95303.44;;;24.88;44.11
51083;BME280;37131;42.694;23.350;2023-07-29T08:38:15;95301.53;;;25.41;43.25
51083;BME280;37131;42.694;23.350;2023-07-29T08:41:09;95301.84;;;25.39;43.83
51083;BME280;37131;42.694;23.350;2023-07-29T08:43:38;95306.25;;;25.83;40.85
51083;BME280;37131;42.694;23.350;2023-07-29T08:46:04;95306.94;;;25.71;40.59
51083;BME280;37131;42.694;23.350;2023-07-29T08:48:36;95286.81;;;25.82;40.44
51083;BME280;37131;42.694;23.350;2023-07-29T08:51:05;95286.81;;;25.82;40.71
51083;BME280;37131;42.694;23.350;2023-07-29T08:53:31;95267.84;;;26.05;39.90
51083;BME280;37131;42.694;23.350;2023-07-29T08:55:56;95293.13;;;26.16;39.70
51083;BME280;37131;42.694;23.350;2023-07-29T08:58:23;95265.78;;;26.11;39.46
51083;BME280;37131;42.694;23.350;2023-07-29T09:00:50;95273.28;;;26.47;37.88
51083;BME280;37131;42.694;23.350;2023-07-29T09:03:15;95279.13;;;26.40;37.77
51083;BME280;37131;42.694;23.350;2023-07-29T09:05:41;95279.50;;;26.51;36.05
51083;BME280;37131;42.694;23.350;2023-07-29T09:08:06;95282.00;;;26.05;36.02
51083;BME280;37131;42.694;23.350;2023-07-29T09:10:36;95268.16;;;26.33;36.53
51083;BME280;37131;42.694;23.350;2023-07-29T09:13:02;95269.75;;;26.55;34.78
51083;BME280;37131;42.694;23.350;2023-07-29T09:15:29;95255.06;;;26.61;35.30
51083;BME280;37131;42.694;23.350;2023-07-29T09:17:58;95263.13;;;26.83;35.09
51083;BME280;37131;42.694;23.350;2023-07-29T09:20:25;95261.56;;;27.15;34.06
51083;BME280;37131;42.694;23.350;2023-07-29T09:22:51;95254.19;;;27.12;34.13
51083;BME280;37131;42.694;23.350;2023-07-29T09:25:23;95250.06;;;27.14;33.97
51083;BME280;37131;42.694;23.350;2023-07-29T09:27:48;95253.00;;;27.22;34.70
51083;BME280;37131;42.694;23.350;2023-07-29T09:30:15;95254.59;;;27.35;34.86
51083;BME280;37131;42.694;23.350;2023-07-29T09:32:41;95241.78;;;27.07;34.80
51083;BME280;37131;42.694;23.350;2023-07-29T09:35:11;95246.63;;;27.60;34.21
51083;BME280;37131;42.694;23.350;2023-07-29T09:37:38;95242.63;;;27.20;34.05
51083;BME280;37131;42.694;23.350;2023-07-29T09:40:05;95246.91;;;27.34;33.69
51083;BME280;37131;42.694;23.350;2023-07-29T09:42:31;95237.81;;;26.80;34.41
51083;BME280;37131;42.694;23.350;2023-07-29T09:44:57;95239.41;;;26.93;34.09
51083;BME280;37131;42.694;23.350;2023-07-29T09:47:24;95241.78;;;27.41;34.02
51083;BME280;37131;42.694;23.350;2023-07-29T09:49:51;95234.34;;;27.83;31.88
51083;BME280;37131;42.694;23.350;2023-07-29T09:52:17;95238.91;;;27.71;32.07
51083;BME280;37131;42.694;23.350;2023-07-29T09:54:44;95228.88;;;27.92;32.23
51083;BME280;37131;42.694;23.350;2023-07-29T09:57:13;95230.78;;;27.92;31.76
51083;BME280;37131;42.694;23.350;2023-07-29T09:59:39;95224.97;;;27.90;30.86
51083;BME280;37131;42.694;23.350;2023-07-29T10:02:10;95230.47;;;28.06;30.41
51083;BME280;37131;42.694;23.350;2023-07-29T10:04:38;95219.16;;;28.25;31.24
51083;BME280;37131;42.694;23.350;2023-07-29T10:07:03;95219.63;;;28.55;30.65
51083;BME280;37131;42.694;23.350;2023-07-29T10:09:29;95222.28;;;28.27;30.27
51083;BME280;37131;42.694;23.350;2023-07-29T10:11:57;95223.53;;;28.58;29.90
51083;BME280;37131;42.694;23.350;2023-07-29T10:14:22;95220.19;;;28.73;29.78
51083;BME280;37131;42.694;23.350;2023-07-29T10:16:49;95219.63;;;28.67;30.59
51083;BME280;37131;42.694;23.350;2023-07-29T10:19:16;95216.56;;;28.81;30.42
51083;BME280;37131;42.694;23.350;2023-07-29T10:21:44;95206.50;;;28.78;30.65
51083;BME280;37131;42.694;23.350;2023-07-29T10:24:15;95187.94;;;29.01;30.06
51083;BME280;37131;42.694;23.350;2023-07-29T10:26:46;95162.38;;;28.92;30.67
51083;BME280;37131;42.694;23.350;2023-07-29T10:29:13;95191.53;;;29.21;29.78
51083;BME280;37131;42.694;23.350;2023-07-29T10:31:43;95188.78;;;28.90;31.28
51083;BME280;37131;42.694;23.350;2023-07-29T10:34:08;95182.44;;;29.26;31.00
51083;BME280;37131;42.694;23.350;2023-07-29T10:36:35;95180.00;;;29.69;30.00
51083;BME280;37131;42.694;23.350;2023-07-29T10:39:01;95168.75;;;28.71;31.15
51083;BME280;37131;42.694;23.350;2023-07-29T10:41:55;95171.97;;;29.37;30.26
51083;BME280;37131;42.694;23.350;2023-07-29T10:50:02;95164.56;;;29.98;28.91
51083;BME280;37131;42.694;23.350;2023-07-29T10:52:41;95144.38;;;29.88;28.93
51083;BME280;37131;42.694;23.350;2023-07-29T10:55:43;95160.50;;;29.88;28.70
51083;BME280;37131;42.694;23.350;2023-07-29T10:58:11;95161.53;;;30.19;28.44
51083;BME280;37131;42.694;23.350;2023-07-29T11:00:38;95158.50;;;30.20;28.38
51083;BME280;37131;42.694;23.350;2023-07-29T11:03:06;95149.25;;;30.37;27.80
51083;BME280;37131;42.694;23.350;2023-07-29T11:05:42;95142.00;;;30.02;27.69
51083;BME280;37131;42.694;23.350;2023-07-29T11:08:20;95137.50;;;30.46;27.49
51083;BME280;37131;42.694;23.350;2023-07-29T11:13:34;95142.38;;;30.20;27.54
51083;BME280;37131;42.694;23.350;2023-07-29T11:16:00;95143.66;;;29.39;28.21
51083;BME280;37131;42.694;23.350;2023-07-29T11:18:28;95143.91;;;29.50;28.51
51083;BME280;37131;42.694;23.350;2023-07-29T11:20:55;95143.97;;;29.70;28.44
51083;BME280;37131;42.694;23.350;2023-07-29T11:23:27;95145.69;;;29.14;28.75
51083;BME280;37131;42.694;23.350;2023-07-29T11:25:53;95144.44;;;29.40;28.35
51083;BME280;37131;42.694;23.350;2023-07-29T11:28:19;95142.28;;;29.81;28.62
51083;BME280;37131;42.694;23.350;2023-07-29T11:30:44;95136.41;;;29.91;28.16
51083;BME280;37131;42.694;23.350;2023-07-29T11:33:10;95136.84;;;30.13;27.79
51083;BME280;37131;42.694;23.350;2023-07-29T11:35:36;95136.94;;;30.17;26.73
51083;BME280;37131;42.694;23.350;2023-07-29T11:38:01;95133.38;;;30.32;27.13
51083;BME280;37131;42.694;23.350;2023-07-29T11:40:27;95125.25;;;30.48;26.41
51083;BME280;37131;42.694;23.350;2023-07-29T11:42:52;95128.72;;;30.49;25.21
51083;BME280;37131;42.694;23.350;2023-07-29T11:45:19;95122.31;;;30.53;25.28
51083;BME280;37131;42.694;23.350;2023-07-29T11:47:45;95122.09;;;30.42;26.27
51083;BME280;37131;42.694;23.350;2023-07-29T11:50:12;95115.78;;;30.15;25.79
51083;BME280;37131;42.694;23.350;2023-07-29T11:52:42;95101.56;;;30.54;25.72
51083;BME280;37131;42.694;23.350;2023-07-29T11:55:08;95111.66;;;30.60;26.17
51083;BME280;37131;42.694;23.350;2023-07-29T11:57:37;95113.25;;;30.85;26.04
51083;BME280;37131;42.694;23.350;2023-07-29T12:00:04;95097.47;;;30.83;25.67
51083;BME280;37131;42.694;23.350;2023-07-29T12:02:32;95105.16;;;30.85;25.47
51083;BME280;37131;42.694;23.350;2023-07-29T12:04:58;95097.91;;;31.08;26.04
51083;BME280;37131;42.694;23.350;2023-07-29T12:07:25;95074.19;;;31.18;26.30
51083;BME280;37131;42.694;23.350;2023-07-29T12:09:51;95096.00;;;31.36;25.71
51083;BME280;37131;42.694;23.350;2023-07-29T12:12:17;95087.25;;;31.42;25.36
51083;BME280;37131;42.694;23.350;2023-07-29T12:14:46;95089.19;;;31.42;25.81
51083;BME280;37131;42.694;23.350;2023-07-29T12:17:12;95084.00;;;31.29;25.71
51083;BME280;37131;42.694;23.350;2023-07-29T12:19:39;95093.66;;;31.34;26.19
51083;BME280;37131;42.694;23.350;2023-07-29T12:22:07;95085.41;;;31.46;25.71
51083;BME280;37131;42.694;23.350;2023-07-29T12:24:34;95081.19;;;31.49;25.30
51083;BME280;37131;42.694;23.350;2023-07-29T12:27:00;95083.19;;;31.52;25.45
51083;BME280;37131;42.694;23.350;2023-07-29T12:29:26;95042.72;;;30.99;25.30
51083;BME280;37131;42.694;23.350;2023-07-29T12:32:02;95075.63;;;31.35;25.69
51083;BME280;37131;42.694;23.350;2023-07-29T12:34:30;95083.09;;;31.72;25.47
51083;BME280;37131;42.694;23.350;2023-07-29T12:36:58;95050.22;;;31.93;25.11
51083;BME280;37131;42.694;23.350;2023-07-29T12:39:28;95072.19;;;32.22;24.83
51083;BME280;37131;42.694;23.350;2023-07-29T12:41:56;95072.97;;;31.38;25.38
51083;BME280;37131;42.694;23.350;2023-07-29T12:44:23;95065.75;;;31.19;25.69
51083;BME280;37131;42.694;23.350;2023-07-29T12:46:49;95076.53;;;31.46;25.64
51083;BME280;37131;42.694;23.350;2023-07-29T12:49:14;95075.97;;;31.87;24.41
51083;BME280;37131;42.694;23.350;2023-07-29T12:51:40;95074.22;;;31.71;22.93
51083;BME280;37131;42.694;23.350;2023-07-29T12:54:05;95071.00;;;31.62;23.33
51083;BME280;37131;42.694;23.350;2023-07-29T12:56:32;95064.41;;;31.86;23.82
51083;BME280;37131;42.694;23.350;2023-07-29T12:58:58;95071.91;;;32.30;23.61
51083;BME280;37131;42.694;23.350;2023-07-29T13:01:24;95066.72;;;32.18;24.10
51083;BME280;37131;42.694;23.350;2023-07-29T13:03:50;95065.13;;;32.13;23.18
51083;BME280;37131;42.694;23.350;2023-07-29T13:06:15;95067.66;;;32.33;23.39
51083;BME280;37131;42.694;23.350;2023-07-29T13:08:41;95065.25;;;32.24;24.20